sensor_id;sensor_type;location;lat;lon;timestamp;temperature;humidity
21267;DHT22;10791;53.108;18.326;2024-03-02T00:05:00;7.60;99.90
21267;DHT22;10791;53.108;18.326;2024-03-02T00:10:09;7.60;99.90
21267;DHT22;10791;53.108;18.326;2024-03-02T00:20:42;7.60;99.90
21267;DHT22;10791;53.108;18.326;2024-03-02T00:25:52;7.60;99.90
21267;DHT22;10791;53.108;18.326;2024-03-02T00:36:03;7.60;99.90
21267;DHT22;10791;53.108;18.326;2024-03-02T00:41:07;7.50;99.90
21267;DHT22;10791;53.108;18.326;2024-03-02T00:46:16;7.50;99.90
21267;DHT22;10791;53.108;18.326;2024-03-02T00:51:22;7.50;99.90
21267;DHT22;10791;53.108;18.326;2024-03-02T00:56:26;7.40;99.90
21267;DHT22;10791;53.108;18.326;2024-03-02T01:01:29;7.40;99.90
21267;DHT22;10791;53.108;18.326;2024-03-02T01:06:32;7.40;99.90
21267;DHT22;10791;53.108;18.326;2024-03-02T01:11:36;7.40;99.90
21267;DHT22;10791;53.108;18.326;2024-03-02T01:16:40;7.40;99.90
21267;DHT22;10791;53.108;18.326;2024-03-02T01:21:43;7.40;99.90
21267;DHT22;10791;53.108;18.326;2024-03-02T01:26:46;7.30;99.90
21267;DHT22;10791;53.108;18.326;2024-03-02T01:31:50;7.40;99.90
21267;DHT22;10791;53.108;18.326;2024-03-02T01:36:54;7.40;99.90
21267;DHT22;10791;53.108;18.326;2024-03-02T01:41:57;7.30;99.90
21267;DHT22;10791;53.108;18.326;2024-03-02T01:47:01;7.30;99.90
21267;DHT22;10791;53.108;18.326;2024-03-02T01:52:04;7.30;99.90
21267;DHT22;10791;53.108;18.326;2024-03-02T01:57:07;7.30;99.90
21267;DHT22;10791;53.108;18.326;2024-03-02T02:02:11;7.30;99.90
21267;DHT22;10791;53.108;18.326;2024-03-02T02:07:14;7.40;99.90
21267;DHT22;10791;53.108;18.326;2024-03-02T02:12:18;7.40;99.90
21267;DHT22;10791;53.108;18.326;2024-03-02T02:17:21;7.40;99.90
21267;DHT22;10791;53.108;18.326;2024-03-02T02:22:25;7.30;99.90
21267;DHT22;10791;53.108;18.326;2024-03-02T02:27:28;7.30;99.90
21267;DHT22;10791;53.108;18.326;2024-03-02T02:32:31;7.30;99.90
21267;DHT22;10791;53.108;18.326;2024-03-02T02:37:34;7.30;99.90
21267;DHT22;10791;53.108;18.326;2024-03-02T02:42:38;7.20;99.90
21267;DHT22;10791;53.108;18.326;2024-03-02T02:47:42;7.20;99.90
21267;DHT22;10791;53.108;18.326;2024-03-02T02:52:46;7.10;99.90
21267;DHT22;10791;53.108;18.326;2024-03-02T02:57:50;7.10;99.90
21267;DHT22;10791;53.108;18.326;2024-03-02T03:02:53;7.00;99.90
21267;DHT22;10791;53.108;18.326;2024-03-02T03:07:56;6.90;99.90
21267;DHT22;10791;53.108;18.326;2024-03-02T03:13:00;6.90;99.90
21267;DHT22;10791;53.108;18.326;2024-03-02T03:18:06;6.80;99.90
21267;DHT22;10791;53.108;18.326;2024-03-02T03:23:11;6.80;99.90
21267;DHT22;10791;53.108;18.326;2024-03-02T03:28:18;6.90;99.90
21267;DHT22;10791;53.108;18.326;2024-03-02T03:33:22;7.00;99.90
21267;DHT22;10791;53.108;18.326;2024-03-02T03:38:25;6.90;99.90
21267;DHT22;10791;53.108;18.326;2024-03-02T03:43:28;6.90;99.90
21267;DHT22;10791;53.108;18.326;2024-03-02T03:48:32;6.90;99.90
21267;DHT22;10791;53.108;18.326;2024-03-02T03:53:35;6.90;99.90
21267;DHT22;10791;53.108;18.326;2024-03-02T03:58:38;6.90;99.90
21267;DHT22;10791;53.108;18.326;2024-03-02T04:03:41;6.90;99.90
21267;DHT22;10791;53.108;18.326;2024-03-02T04:08:45;6.90;99.90
21267;DHT22;10791;53.108;18.326;2024-03-02T04:13:48;6.90;99.90
21267;DHT22;10791;53.108;18.326;2024-03-02T04:18:52;7.00;99.90
21267;DHT22;10791;53.108;18.326;2024-03-02T04:23:55;6.90;99.90
21267;DHT22;10791;53.108;18.326;2024-03-02T04:29:02;7.00;99.90
21267;DHT22;10791;53.108;18.326;2024-03-02T04:34:06;7.00;99.90
21267;DHT22;10791;53.108;18.326;2024-03-02T04:39:09;7.00;99.90
21267;DHT22;10791;53.108;18.326;2024-03-02T04:44:12;7.00;99.90
21267;DHT22;10791;53.108;18.326;2024-03-02T04:49:16;7.00;99.90
21267;DHT22;10791;53.108;18.326;2024-03-02T04:54:19;7.00;99.90
21267;DHT22;10791;53.108;18.326;2024-03-02T04:59:22;7.00;99.90
21267;DHT22;10791;53.108;18.326;2024-03-02T05:04:31;7.10;99.90
21267;DHT22;10791;53.108;18.326;2024-03-02T05:09:34;7.00;99.90
21267;DHT22;10791;53.108;18.326;2024-03-02T05:14:38;7.00;99.90
21267;DHT22;10791;53.108;18.326;2024-03-02T05:19:41;7.00;99.90
21267;DHT22;10791;53.108;18.326;2024-03-02T05:24:44;7.00;99.90
21267;DHT22;10791;53.108;18.326;2024-03-02T05:29:48;7.10;99.90
21267;DHT22;10791;53.108;18.326;2024-03-02T05:34:53;7.00;99.90
21267;DHT22;10791;53.108;18.326;2024-03-02T05:39:56;7.00;99.90
21267;DHT22;10791;53.108;18.326;2024-03-02T05:44:59;7.10;99.90
21267;DHT22;10791;53.108;18.326;2024-03-02T05:50:03;7.10;99.90
21267;DHT22;10791;53.108;18.326;2024-03-02T05:55:07;7.00;99.90
21267;DHT22;10791;53.108;18.326;2024-03-02T06:00:10;7.10;99.90
21267;DHT22;10791;53.108;18.326;2024-03-02T06:05:14;7.10;99.90
21267;DHT22;10791;53.108;18.326;2024-03-02T06:10:18;7.10;99.90
21267;DHT22;10791;53.108;18.326;2024-03-02T06:15:21;7.20;99.90
21267;DHT22;10791;53.108;18.326;2024-03-02T06:20:25;7.10;99.90
21267;DHT22;10791;53.108;18.326;2024-03-02T06:25:29;7.20;99.90
21267;DHT22;10791;53.108;18.326;2024-03-02T06:30:32;7.20;99.90
21267;DHT22;10791;53.108;18.326;2024-03-02T06:35:36;7.20;99.90
21267;DHT22;10791;53.108;18.326;2024-03-02T06:40:39;7.10;99.90
21267;DHT22;10791;53.108;18.326;2024-03-02T06:45:44;7.10;99.90
21267;DHT22;10791;53.108;18.326;2024-03-02T06:50:47;7.10;99.90
21267;DHT22;10791;53.108;18.326;2024-03-02T06:55:51;7.10;99.90
21267;DHT22;10791;53.108;18.326;2024-03-02T07:00:54;7.10;99.90
21267;DHT22;10791;53.108;18.326;2024-03-02T07:05:58;7.10;99.90
21267;DHT22;10791;53.108;18.326;2024-03-02T07:11:01;7.20;99.90
21267;DHT22;10791;53.108;18.326;2024-03-02T07:16:04;7.30;99.90
21267;DHT22;10791;53.108;18.326;2024-03-02T07:21:27;7.30;99.90
21267;DHT22;10791;53.108;18.326;2024-03-02T07:26:31;7.40;99.90
21267;DHT22;10791;53.108;18.326;2024-03-02T07:31:37;7.50;99.90
21267;DHT22;10791;53.108;18.326;2024-03-02T07:36:40;7.60;99.90
21267;DHT22;10791;53.108;18.326;2024-03-02T07:41:45;7.70;99.90
21267;DHT22;10791;53.108;18.326;2024-03-02T07:46:49;7.90;99.90
21267;DHT22;10791;53.108;18.326;2024-03-02T07:51:55;8.10;99.90
21267;DHT22;10791;53.108;18.326;2024-03-02T07:56:59;8.30;99.90
21267;DHT22;10791;53.108;18.326;2024-03-02T08:02:03;8.60;99.90
21267;DHT22;10791;53.108;18.326;2024-03-02T08:07:06;8.60;99.90
21267;DHT22;10791;53.108;18.326;2024-03-02T08:12:10;8.60;99.90
21267;DHT22;10791;53.108;18.326;2024-03-02T08:17:13;8.60;99.90
21267;DHT22;10791;53.108;18.326;2024-03-02T08:22:16;8.70;99.90
21267;DHT22;10791;53.108;18.326;2024-03-02T08:27:19;8.60;99.90
21267;DHT22;10791;53.108;18.326;2024-03-02T08:32:23;8.80;99.90
21267;DHT22;10791;53.108;18.326;2024-03-02T08:37:26;8.90;99.90
21267;DHT22;10791;53.108;18.326;2024-03-02T08:42:30;9.10;99.90
21267;DHT22;10791;53.108;18.326;2024-03-02T08:47:33;9.20;99.90
21267;DHT22;10791;53.108;18.326;2024-03-02T08:52:37;9.20;99.90
21267;DHT22;10791;53.108;18.326;2024-03-02T08:57:40;9.30;99.90
21267;DHT22;10791;53.108;18.326;2024-03-02T09:02:45;9.30;99.90
21267;DHT22;10791;53.108;18.326;2024-03-02T09:07:48;9.30;99.90
21267;DHT22;10791;53.108;18.326;2024-03-02T09:12:52;9.30;99.90
21267;DHT22;10791;53.108;18.326;2024-03-02T09:17:55;9.30;99.90
21267;DHT22;10791;53.108;18.326;2024-03-02T09:22:59;9.40;99.90
21267;DHT22;10791;53.108;18.326;2024-03-02T09:28:03;9.40;99.90
21267;DHT22;10791;53.108;18.326;2024-03-02T09:33:06;9.60;99.90
21267;DHT22;10791;53.108;18.326;2024-03-02T09:38:13;9.90;99.90
21267;DHT22;10791;53.108;18.326;2024-03-02T09:43:17;10.20;99.90
21267;DHT22;10791;53.108;18.326;2024-03-02T09:48:21;10.60;99.90
21267;DHT22;10791;53.108;18.326;2024-03-02T09:53:25;10.70;99.90
21267;DHT22;10791;53.108;18.326;2024-03-02T09:58:33;10.90;99.90
21267;DHT22;10791;53.108;18.326;2024-03-02T10:03:39;11.00;99.90
21267;DHT22;10791;53.108;18.326;2024-03-02T10:08:45;11.10;99.90
21267;DHT22;10791;53.108;18.326;2024-03-02T10:13:48;11.10;99.90
21267;DHT22;10791;53.108;18.326;2024-03-02T10:18:52;11.00;99.90
21267;DHT22;10791;53.108;18.326;2024-03-02T10:24:06;11.00;99.90
21267;DHT22;10791;53.108;18.326;2024-03-02T10:29:11;11.00;99.90
21267;DHT22;10791;53.108;18.326;2024-03-02T10:34:14;11.10;99.90
21267;DHT22;10791;53.108;18.326;2024-03-02T10:39:19;11.10;99.90
21267;DHT22;10791;53.108;18.326;2024-03-02T10:44:23;11.10;99.90
21267;DHT22;10791;53.108;18.326;2024-03-02T10:49:29;11.10;99.90
21267;DHT22;10791;53.108;18.326;2024-03-02T10:54:32;11.20;99.90
21267;DHT22;10791;53.108;18.326;2024-03-02T10:59:56;11.30;99.90
21267;DHT22;10791;53.108;18.326;2024-03-02T11:05:04;11.70;99.90
21267;DHT22;10791;53.108;18.326;2024-03-02T11:10:11;12.00;99.90
21267;DHT22;10791;53.108;18.326;2024-03-02T11:15:18;12.20;99.90
21267;DHT22;10791;53.108;18.326;2024-03-02T11:20:24;12.50;99.90
21267;DHT22;10791;53.108;18.326;2024-03-02T11:25:28;12.70;99.90
21267;DHT22;10791;53.108;18.326;2024-03-02T11:35:43;12.60;99.90
21267;DHT22;10791;53.108;18.326;2024-03-02T11:40:50;12.70;99.90
21267;DHT22;10791;53.108;18.326;2024-03-02T11:45:59;12.80;99.90
21267;DHT22;10791;53.108;18.326;2024-03-02T11:51:04;12.70;99.90
21267;DHT22;10791;53.108;18.326;2024-03-02T11:56:09;12.80;99.90
21267;DHT22;10791;53.108;18.326;2024-03-02T12:01:15;12.80;99.90
21267;DHT22;10791;53.108;18.326;2024-03-02T12:06:20;12.80;99.90
21267;DHT22;10791;53.108;18.326;2024-03-02T12:11:24;12.70;99.90
21267;DHT22;10791;53.108;18.326;2024-03-02T12:16:28;12.70;99.90
21267;DHT22;10791;53.108;18.326;2024-03-02T12:21:32;12.80;99.90
21267;DHT22;10791;53.108;18.326;2024-03-02T12:26:36;13.10;99.90
21267;DHT22;10791;53.108;18.326;2024-03-02T12:31:39;13.00;99.90
21267;DHT22;10791;53.108;18.326;2024-03-02T12:36:43;13.10;99.90
21267;DHT22;10791;53.108;18.326;2024-03-02T12:41:51;12.90;99.90
21267;DHT22;10791;53.108;18.326;2024-03-02T12:46:54;13.00;99.90
21267;DHT22;10791;53.108;18.326;2024-03-02T12:52:01;12.70;99.90
21267;DHT22;10791;53.108;18.326;2024-03-02T12:57:06;12.40;99.90
21267;DHT22;10791;53.108;18.326;2024-03-02T13:02:17;12.20;99.90
21267;DHT22;10791;53.108;18.326;2024-03-02T13:07:21;12.20;99.90
21267;DHT22;10791;53.108;18.326;2024-03-02T13:12:28;12.30;99.90
21267;DHT22;10791;53.108;18.326;2024-03-02T13:17:36;12.50;99.90
21267;DHT22;10791;53.108;18.326;2024-03-02T13:22:41;12.50;99.90
21267;DHT22;10791;53.108;18.326;2024-03-02T13:27:45;12.40;99.90
21267;DHT22;10791;53.108;18.326;2024-03-02T13:32:48;12.30;99.90
21267;DHT22;10791;53.108;18.326;2024-03-02T13:37:51;12.40;99.90
21267;DHT22;10791;53.108;18.326;2024-03-02T13:42:55;12.40;99.90
21267;DHT22;10791;53.108;18.326;2024-03-02T13:48:00;12.30;99.90
21267;DHT22;10791;53.108;18.326;2024-03-02T13:53:05;12.20;99.90
21267;DHT22;10791;53.108;18.326;2024-03-02T13:58:10;12.10;99.90
21267;DHT22;10791;53.108;18.326;2024-03-02T14:03:14;12.10;99.90
21267;DHT22;10791;53.108;18.326;2024-03-02T14:08:17;12.00;99.90
21267;DHT22;10791;53.108;18.326;2024-03-02T14:13:21;11.90;99.90
21267;DHT22;10791;53.108;18.326;2024-03-02T14:18:25;11.80;99.90
21267;DHT22;10791;53.108;18.326;2024-03-02T14:23:29;11.80;99.90
21267;DHT22;10791;53.108;18.326;2024-03-02T14:28:32;11.70;99.90
21267;DHT22;10791;53.108;18.326;2024-03-02T14:33:53;11.50;99.90
21267;DHT22;10791;53.108;18.326;2024-03-02T14:38:57;11.40;99.90
21267;DHT22;10791;53.108;18.326;2024-03-02T14:44:00;11.30;99.90
21267;DHT22;10791;53.108;18.326;2024-03-02T14:49:04;11.20;99.90
21267;DHT22;10791;53.108;18.326;2024-03-02T14:54:07;11.20;99.90
21267;DHT22;10791;53.108;18.326;2024-03-02T14:59:11;11.00;99.90
21267;DHT22;10791;53.108;18.326;2024-03-02T15:04:15;10.90;99.90
21267;DHT22;10791;53.108;18.326;2024-03-02T15:09:23;10.80;99.90
21267;DHT22;10791;53.108;18.326;2024-03-02T15:14:27;10.70;99.90
21267;DHT22;10791;53.108;18.326;2024-03-02T15:19:30;10.60;99.90
21267;DHT22;10791;53.108;18.326;2024-03-02T15:24:34;10.50;99.90
21267;DHT22;10791;53.108;18.326;2024-03-02T15:29:41;10.50;99.90
21267;DHT22;10791;53.108;18.326;2024-03-02T15:34:45;10.40;99.90
21267;DHT22;10791;53.108;18.326;2024-03-02T15:39:48;10.40;99.90
21267;DHT22;10791;53.108;18.326;2024-03-02T15:44:52;10.30;99.90
21267;DHT22;10791;53.108;18.326;2024-03-02T15:49:56;10.40;99.90
21267;DHT22;10791;53.108;18.326;2024-03-02T15:55:00;10.30;99.90
21267;DHT22;10791;53.108;18.326;2024-03-02T16:00:05;10.30;99.90
21267;DHT22;10791;53.108;18.326;2024-03-02T16:05:09;10.20;99.90
21267;DHT22;10791;53.108;18.326;2024-03-02T16:10:12;10.10;99.90
21267;DHT22;10791;53.108;18.326;2024-03-02T16:15:16;10.00;99.90
21267;DHT22;10791;53.108;18.326;2024-03-02T16:20:19;9.90;99.90
21267;DHT22;10791;53.108;18.326;2024-03-02T16:25:23;9.80;99.90
21267;DHT22;10791;53.108;18.326;2024-03-02T16:30:27;9.70;99.90
21267;DHT22;10791;53.108;18.326;2024-03-02T16:35:32;9.70;99.90
21267;DHT22;10791;53.108;18.326;2024-03-02T16:40:35;9.60;99.90
21267;DHT22;10791;53.108;18.326;2024-03-02T16:45:38;9.60;99.90
21267;DHT22;10791;53.108;18.326;2024-03-02T16:50:43;9.60;99.90
21267;DHT22;10791;53.108;18.326;2024-03-02T16:55:47;9.50;99.90
21267;DHT22;10791;53.108;18.326;2024-03-02T17:00:51;9.50;99.90
21267;DHT22;10791;53.108;18.326;2024-03-02T17:05:56;9.40;99.90
21267;DHT22;10791;53.108;18.326;2024-03-02T17:11:00;9.40;99.90
21267;DHT22;10791;53.108;18.326;2024-03-02T17:16:03;9.40;99.90
21267;DHT22;10791;53.108;18.326;2024-03-02T17:21:07;9.30;99.90
21267;DHT22;10791;53.108;18.326;2024-03-02T17:26:10;9.40;99.90
21267;DHT22;10791;53.108;18.326;2024-03-02T17:31:14;9.30;99.90
21267;DHT22;10791;53.108;18.326;2024-03-02T17:36:18;9.30;99.90
21267;DHT22;10791;53.108;18.326;2024-03-02T17:41:23;9.20;99.90
21267;DHT22;10791;53.108;18.326;2024-03-02T17:46:28;9.20;99.90
21267;DHT22;10791;53.108;18.326;2024-03-02T17:51:32;9.20;99.90
21267;DHT22;10791;53.108;18.326;2024-03-02T17:56:36;9.20;99.90
21267;DHT22;10791;53.108;18.326;2024-03-02T18:01:41;9.10;99.90
21267;DHT22;10791;53.108;18.326;2024-03-02T18:06:45;9.10;99.90
21267;DHT22;10791;53.108;18.326;2024-03-02T18:11:50;9.00;99.90
21267;DHT22;10791;53.108;18.326;2024-03-02T18:16:54;9.10;99.90
21267;DHT22;10791;53.108;18.326;2024-03-02T18:21:59;9.00;99.90
21267;DHT22;10791;53.108;18.326;2024-03-02T18:27:04;9.00;99.90
21267;DHT22;10791;53.108;18.326;2024-03-02T18:32:08;9.00;99.90
21267;DHT22;10791;53.108;18.326;2024-03-02T18:37:13;9.00;99.90
21267;DHT22;10791;53.108;18.326;2024-03-02T18:42:18;8.90;99.90
21267;DHT22;10791;53.108;18.326;2024-03-02T18:47:23;8.90;99.90
21267;DHT22;10791;53.108;18.326;2024-03-02T18:52:28;8.90;99.90
21267;DHT22;10791;53.108;18.326;2024-03-02T18:57:33;8.80;99.90
21267;DHT22;10791;53.108;18.326;2024-03-02T19:02:38;8.80;99.90
21267;DHT22;10791;53.108;18.326;2024-03-02T19:07:45;8.80;99.90
21267;DHT22;10791;53.108;18.326;2024-03-02T19:12:49;8.70;99.90
21267;DHT22;10791;53.108;18.326;2024-03-02T19:17:54;8.60;99.90
21267;DHT22;10791;53.108;18.326;2024-03-02T19:22:58;8.60;99.90
21267;DHT22;10791;53.108;18.326;2024-03-02T19:28:02;8.50;99.90
21267;DHT22;10791;53.108;18.326;2024-03-02T19:33:07;8.40;99.90
21267;DHT22;10791;53.108;18.326;2024-03-02T19:38:11;8.40;99.90
21267;DHT22;10791;53.108;18.326;2024-03-02T19:43:17;8.30;99.90
21267;DHT22;10791;53.108;18.326;2024-03-02T19:48:22;8.30;99.90
21267;DHT22;10791;53.108;18.326;2024-03-02T19:53:27;8.20;99.90
21267;DHT22;10791;53.108;18.326;2024-03-02T19:58:31;8.20;99.90
21267;DHT22;10791;53.108;18.326;2024-03-02T20:03:36;8.10;99.90
21267;DHT22;10791;53.108;18.326;2024-03-02T20:08:40;8.10;99.90
21267;DHT22;10791;53.108;18.326;2024-03-02T20:13:44;8.10;99.90
21267;DHT22;10791;53.108;18.326;2024-03-02T20:18:48;8.00;99.90
21267;DHT22;10791;53.108;18.326;2024-03-02T20:23:54;7.90;99.90
21267;DHT22;10791;53.108;18.326;2024-03-02T20:28:59;7.90;99.90
21267;DHT22;10791;53.108;18.326;2024-03-02T20:34:04;7.90;99.90
21267;DHT22;10791;53.108;18.326;2024-03-02T20:39:08;7.80;99.90
21267;DHT22;10791;53.108;18.326;2024-03-02T20:44:13;7.80;99.90
21267;DHT22;10791;53.108;18.326;2024-03-02T20:49:18;7.80;99.90
21267;DHT22;10791;53.108;18.326;2024-03-02T20:54:23;7.70;99.90
21267;DHT22;10791;53.108;18.326;2024-03-02T20:59:28;7.60;99.90
21267;DHT22;10791;53.108;18.326;2024-03-02T21:04:32;7.60;99.90
21267;DHT22;10791;53.108;18.326;2024-03-02T21:09:37;7.60;99.90
21267;DHT22;10791;53.108;18.326;2024-03-02T21:14:41;7.60;99.90
21267;DHT22;10791;53.108;18.326;2024-03-02T21:19:45;7.60;99.90
21267;DHT22;10791;53.108;18.326;2024-03-02T21:24:51;7.50;99.90
21267;DHT22;10791;53.108;18.326;2024-03-02T21:29:56;7.40;99.90
21267;DHT22;10791;53.108;18.326;2024-03-02T21:35:00;7.40;99.90
21267;DHT22;10791;53.108;18.326;2024-03-02T21:40:05;7.40;99.90
21267;DHT22;10791;53.108;18.326;2024-03-02T21:45:12;7.40;99.90
21267;DHT22;10791;53.108;18.326;2024-03-02T21:50:17;7.30;99.90
21267;DHT22;10791;53.108;18.326;2024-03-02T21:55:21;7.30;99.90
21267;DHT22;10791;53.108;18.326;2024-03-02T22:00:25;7.30;99.90
21267;DHT22;10791;53.108;18.326;2024-03-02T22:05:28;7.30;99.90
21267;DHT22;10791;53.108;18.326;2024-03-02T22:10:32;7.30;99.90
21267;DHT22;10791;53.108;18.326;2024-03-02T22:15:36;7.30;99.90
21267;DHT22;10791;53.108;18.326;2024-03-02T22:20:42;7.30;99.90
21267;DHT22;10791;53.108;18.326;2024-03-02T22:25:46;7.30;99.90
21267;DHT22;10791;53.108;18.326;2024-03-02T22:30:51;7.30;99.90
21267;DHT22;10791;53.108;18.326;2024-03-02T22:35:55;7.30;99.90
21267;DHT22;10791;53.108;18.326;2024-03-02T22:40:59;7.30;99.90
21267;DHT22;10791;53.108;18.326;2024-03-02T22:46:03;7.30;99.90
21267;DHT22;10791;53.108;18.326;2024-03-02T22:51:06;7.30;99.90
21267;DHT22;10791;53.108;18.326;2024-03-02T22:56:11;7.20;99.90
21267;DHT22;10791;53.108;18.326;2024-03-02T23:01:14;7.10;99.90
21267;DHT22;10791;53.108;18.326;2024-03-02T23:06:18;7.10;99.90
21267;DHT22;10791;53.108;18.326;2024-03-02T23:11:24;7.00;99.90
21267;DHT22;10791;53.108;18.326;2024-03-02T23:16:29;7.00;99.90
21267;DHT22;10791;53.108;18.326;2024-03-02T23:21:40;6.90;99.90
21267;DHT22;10791;53.108;18.326;2024-03-02T23:26:43;6.90;99.90
21267;DHT22;10791;53.108;18.326;2024-03-02T23:31:47;6.80;99.90
21267;DHT22;10791;53.108;18.326;2024-03-02T23:36:50;6.80;99.90
21267;DHT22;10791;53.108;18.326;2024-03-02T23:41:54;6.80;99.90
21267;DHT22;10791;53.108;18.326;2024-03-02T23:46:57;6.80;99.90
21267;DHT22;10791;53.108;18.326;2024-03-02T23:52:00;6.80;99.90
21267;DHT22;10791;53.108;18.326;2024-03-02T23:57:04;6.80;99.90
